KAKR/AKR METAR and TAF weather

Enter ICAO airport designator
Station Type Date Time Source
KAKR METAR 2019/12/13 13:54 UTC NOAA

KAKR 131354Z AUTO 18006KT 10SM BKN055 OVC070 01/M07 A3013 RMK AO2 SLP212 T00111072 $


Station Type Date Time Source
KAKR Decoded METAR 2019/12/13 13:54 UTC NOAA

AKRON FULTON INTERNATIONAL, OH, United States (KAKR) 41-02N 081-28W 363M
Dec 13, 2019 - 08:54 AM EST / 2019.12.13 1354 UTC
Wind: from the S (180 degrees) at 7 MPH (6 KT):0
Visibility: 10 mile(s):0
Sky conditions: overcast
Temperature: 34.0 F (1.1 C)
Windchill: 28 F (-2 C):1
Dew Point: 19.0 F (-7.2 C)
Relative Humidity: 53%
Pressure (altimeter): 30.13 in. Hg (1020 hPa)
ob: KAKR 131354Z AUTO 18006KT 10SM BKN055 OVC070 01/M07 A3013 RMK AO2 SLP212 T00111072
cycle: 14

Station Type Date Time Source
KAKR TAF UTC NOAA

Error!

Example: see airport list